Flight Information

DEPARTURE
CAMARILLO, CA
Elevation:
76
Runways:
8/26 - 6013x150 - ASPH-CONC-G
Active PE Departure:
26
Current PE ATIS:
O
Altimeter:
29.89
Remarks:
ATIS:
126.025 805-484-3351
Clearance Delivery:
121.8
Ground:
121.8
Tower:
128.2
DESTINATION
,
Elevation:
TPA:
1000 (est.)


6822.3 NM73° True-14° Var58° HDG

Flight Plan:
(click to file on line)

1. Type
2. Aircraft Identification
3. Aircraft Type / Special Equipment
4. True Airspeed
kts
5. Departure Airport
(ICAO code)
6. Arriving Airport
(ICAO code)
7. Cruising Altitude
ft
8. Alternate Airport
(ICAO code)
9. Route of Flight
10. Remarks


00:00:00 Departure ATIS: Destination ATIS:

Clearance Limit:
Route:
Altitude: Expect in minutes
Frequency:
Transponder: (7500 Hijack / 7600 Lost Comms / 7700 Emergency)


KCMA 010355Z AUTO 29005KT 10SM CLR 22/16 A2989 RMK AO2 SLP130 T02220161
Time: 2020-10-01T03:55:00Z
1601525541
Winds: 290 @ 5 kts
Visibility: 10.0 sm
Clouds (AGL): CLR
Temperature: 22.2 C
Dew Point: 16.1 C
Pressure: 29.890747 in Hgbr


Notes:

Data extracted from FAA Digital Chart Supplement. Effective: 0901Z Thursday, Sep 10, 2020 to 0901Z Thursday, Nov 5, 2020
Current ATIS data is provided courtisy of PilotEdge.